Time;durP1;ratioP1;P1;durP2;ratioP2;P2;SDS_P1;SDS_P2;PMS_P1;PMS_P2;Temp;Humidity;BMP_temperature;BMP_pressure;BME280_temperature;BME280_humidity;BME280_pressure;Samples;Min_cycle;Max_cycle;Signal;HPM_P1;HPM_P2
2023/08/18 00:00:21;;;;;;;6.43;5.05;;;17.30;99.90;;;;;;5091823;28;20060;-57
2023/08/18 00:02:46;;;;;;;8.57;5.15;;;17.30;99.90;;;;;;5093704;28;20043;-58
2023/08/18 00:05:12;;;;;;;9.88;5.03;;;17.30;99.90;;;;;;5090255;28;20028;-57
2023/08/18 00:07:39;;;;;;;7.93;5.10;;;17.30;99.90;;;;;;5088647;28;20088;-56
2023/08/18 00:10:05;;;;;;;7.82;5.38;;;17.30;99.90;;;;;;5074066;28;20056;-57
2023/08/18 00:12:32;;;;;;;7.70;5.55;;;17.30;99.90;;;;;;5071365;28;20037;-57
2023/08/18 00:14:58;;;;;;;6.57;4.78;;;17.30;99.90;;;;;;5093419;28;20044;-57
2023/08/18 00:17:24;;;;;;;8.90;4.85;;;17.30;99.90;;;;;;5101944;28;20046;-56
2023/08/18 00:19:49;;;;;;;6.00;4.55;;;17.20;99.90;;;;;;5088480;28;20037;-56
2023/08/18 00:22:15;;;;;;;8.65;4.70;;;17.20;99.90;;;;;;5083520;28;20050;-57
2023/08/18 00:24:41;;;;;;;5.95;4.65;;;17.30;99.90;;;;;;5093451;28;20060;-57
2023/08/18 00:27:06;;;;;;;10.13;4.53;;;17.20;99.90;;;;;;5079977;28;20079;-57
2023/08/18 00:29:32;;;;;;;5.93;4.28;;;17.20;99.90;;;;;;5081261;28;20045;-57
2023/08/18 00:31:59;;;;;;;7.97;5.45;;;17.20;99.90;;;;;;5078794;28;20511;-57
2023/08/18 00:34:25;;;;;;;9.55;5.53;;;17.20;99.90;;;;;;5078922;28;20047;-57
2023/08/18 00:36:51;;;;;;;8.13;4.88;;;17.20;99.90;;;;;;5080358;28;20032;-57
2023/08/18 00:39:17;;;;;;;9.45;5.28;;;17.20;99.90;;;;;;5080409;28;20044;-56
2023/08/18 00:41:42;;;;;;;7.38;4.82;;;17.20;99.90;;;;;;5081247;28;20039;-57
2023/08/18 00:44:08;;;;;;;8.93;5.65;;;17.10;99.90;;;;;;5082981;28;20043;-57
2023/08/18 00:46:34;;;;;;;10.55;5.53;;;17.20;99.90;;;;;;5086473;28;20401;-56
2023/08/18 00:49:04;;;;;;;9.65;5.43;;;17.10;99.90;;;;;;5080266;28;20041;-57
2023/08/18 00:51:32;;;;;;;10.93;5.93;;;17.10;99.90;;;;;;5080170;28;20036;-57
2023/08/18 00:53:58;;;;;;;12.98;5.70;;;17.10;99.90;;;;;;5081171;28;20041;-57
2023/08/18 00:56:24;;;;;;;11.73;5.90;;;17.10;99.90;;;;;;5080664;28;20578;-58
2023/08/18 00:58:50;;;;;;;11.27;5.88;;;17.10;99.90;;;;;;5082038;28;20040;-57
2023/08/18 01:01:16;;;;;;;16.58;5.85;;;17.10;99.90;;;;;;5061051;28;20466;-58
2023/08/18 01:03:43;;;;;;;11.23;6.00;;;17.10;99.90;;;;;;5069408;28;20068;-57
2023/08/18 01:06:09;;;;;;;17.40;5.75;;;17.10;99.90;;;;;;5079627;28;20044;-57
2023/08/18 01:08:34;;;;;;;11.75;5.32;;;17.10;99.90;;;;;;5091171;28;20114;-57
2023/08/18 01:11:12;;;;;;;11.27;5.53;;;17.10;99.90;;;;;;5069259;28;20146;-55
2023/08/18 01:14:03;;;;;;;12.43;5.15;;;17.10;99.90;;;;;;5064804;28;20058;-57
2023/08/18 01:16:29;;;;;;;13.32;5.13;;;17.10;99.90;;;;;;5080864;28;20107;-57
2023/08/18 01:18:55;;;;;;;10.10;5.35;;;17.10;99.90;;;;;;5079500;28;20041;-57
2023/08/18 01:21:23;;;;;;;10.65;5.40;;;17.10;99.90;;;;;;5080475;28;20045;-57
2023/08/18 01:23:49;;;;;;;13.38;5.55;;;17.10;99.90;;;;;;5083137;28;20343;-56
2023/08/18 01:26:16;;;;;;;11.27;5.03;;;17.00;99.90;;;;;;5095103;28;20132;-57
2023/08/18 01:28:43;;;;;;;8.82;5.15;;;17.00;99.90;;;;;;5099730;28;20046;-57
2023/08/18 01:31:21;;;;;;;12.52;4.88;;;17.00;99.90;;;;;;5084246;28;20045;-57
2023/08/18 01:33:52;;;;;;;12.15;5.03;;;17.00;99.90;;;;;;5089894;28;20059;-57
2023/08/18 01:36:20;;;;;;;10.27;4.88;;;17.00;99.90;;;;;;5090919;28;20078;-57
2023/08/18 01:38:47;;;;;;;9.77;4.80;;;17.00;99.90;;;;;;5086780;28;20045;-57
2023/08/18 01:41:16;;;;;;;11.82;5.50;;;17.00;99.90;;;;;;5054891;28;20056;-57
2023/08/18 01:43:42;;;;;;;9.63;5.00;;;17.00;99.90;;;;;;5056219;28;20511;-57
2023/08/18 01:46:08;;;;;;;10.45;4.90;;;16.90;99.90;;;;;;5057881;28;20048;-57
2023/08/18 01:48:33;;;;;;;9.35;5.07;;;16.90;99.90;;;;;;5055093;28;20048;-57
2023/08/18 01:50:59;;;;;;;9.93;4.80;;;16.90;99.90;;;;;;5056314;28;20060;-57
2023/08/18 01:53:25;;;;;;;9.77;5.45;;;16.90;99.90;;;;;;5060495;28;20096;-57
2023/08/18 01:55:50;;;;;;;9.20;4.40;;;16.90;99.90;;;;;;5058267;28;20069;-57
2023/08/18 01:58:16;;;;;;;9.85;4.20;;;16.90;99.90;;;;;;5056737;28;20040;-57
2023/08/18 02:00:42;;;;;;;7.93;4.60;;;16.90;99.90;;;;;;5055265;28;20067;-57
2023/08/18 02:03:08;;;;;;;7.70;4.65;;;16.90;99.90;;;;;;5060721;28;20040;-57
2023/08/18 02:05:39;;;;;;;8.93;4.88;;;16.90;99.90;;;;;;5055234;28;20058;-57
2023/08/18 02:08:05;;;;;;;8.45;4.20;;;16.90;99.90;;;;;;5055543;28;20056;-57
2023/08/18 02:10:31;;;;;;;7.07;4.38;;;16.90;99.90;;;;;;5056420;28;20041;-57
2023/08/18 02:12:56;;;;;;;8.68;4.88;;;16.90;99.90;;;;;;5066296;28;20125;-57
2023/08/18 02:15:22;;;;;;;13.35;4.97;;;16.90;99.90;;;;;;5074973;28;20056;-57
2023/08/18 02:17:47;;;;;;;12.63;4.75;;;16.90;99.90;;;;;;5060928;28;20440;-57
2023/08/18 02:20:13;;;;;;;11.23;4.18;;;16.80;99.90;;;;;;5067672;28;20064;-57
2023/08/18 02:22:39;;;;;;;8.70;4.88;;;16.90;99.90;;;;;;5071176;28;20102;-57
2023/08/18 02:25:05;;;;;;;9.95;4.72;;;16.80;99.90;;;;;;5079705;28;20082;-57
2023/08/18 02:27:31;;;;;;;12.32;4.97;;;16.80;99.90;;;;;;5078837;28;20068;-57
2023/08/18 02:29:57;;;;;;;10.90;4.50;;;16.80;99.90;;;;;;5062474;28;20052;-57
2023/08/18 02:32:22;;;;;;;8.15;4.57;;;16.80;99.90;;;;;;5071537;28;20037;-56
2023/08/18 02:34:48;;;;;;;8.52;4.30;;;16.80;99.90;;;;;;5072950;28;20044;-57
2023/08/18 02:37:14;;;;;;;11.43;4.53;;;16.80;99.90;;;;;;5068197;28;20064;-57
2023/08/18 02:39:39;;;;;;;10.55;4.80;;;16.80;99.90;;;;;;5063680;28;20032;-57
2023/08/18 02:42:05;;;;;;;7.15;4.20;;;16.80;99.90;;;;;;5077735;28;20039;-57
2023/08/18 02:44:31;;;;;;;12.27;4.72;;;16.80;99.90;;;;;;5078451;28;20098;-57
2023/08/18 02:46:57;;;;;;;9.05;4.90;;;16.80;99.90;;;;;;5079981;28;20045;-56
2023/08/18 02:49:23;;;;;;;7.82;4.15;;;16.80;99.90;;;;;;5078503;28;20128;-57
2023/08/18 02:51:49;;;;;;;10.90;4.50;;;16.80;99.90;;;;;;5074186;28;20163;-57
2023/08/18 02:54:14;;;;;;;7.32;4.03;;;16.80;99.90;;;;;;5069299;28;20100;-57
2023/08/18 02:56:40;;;;;;;9.02;4.28;;;16.80;99.90;;;;;;5078650;28;20044;-57
2023/08/18 02:59:06;;;;;;;6.65;4.15;;;16.80;99.90;;;;;;5079667;28;20048;-56
2023/08/18 03:01:32;;;;;;;10.20;4.55;;;16.80;99.90;;;;;;5084207;28;20088;-57
2023/08/18 03:03:58;;;;;;;8.30;4.30;;;16.80;99.90;;;;;;5100526;28;20093;-57
2023/08/18 03:06:24;;;;;;;9.60;4.15;;;16.80;99.90;;;;;;5098925;28;20040;-57
2023/08/18 03:08:49;;;;;;;7.90;4.25;;;16.70;99.90;;;;;;5086615;28;20083;-57
2023/08/18 03:11:15;;;;;;;10.13;4.22;;;16.80;99.90;;;;;;5068124;28;20045;-57
2023/08/18 03:13:41;;;;;;;9.13;3.72;;;16.70;99.90;;;;;;5075148;28;20049;-57
2023/08/18 03:16:07;;;;;;;7.22;4.05;;;16.70;99.90;;;;;;5076584;28;20045;-57
2023/08/18 03:18:33;;;;;;;8.55;3.42;;;16.70;99.90;;;;;;5082241;28;20048;-57
2023/08/18 03:21:01;;;;;;;8.65;3.78;;;16.80;99.90;;;;;;5082975;28;20054;-57
2023/08/18 03:23:27;;;;;;;8.98;4.03;;;16.70;99.90;;;;;;5100960;28;20078;-57
2023/08/18 03:26:04;;;;;;;11.02;3.88;;;16.70;99.90;;;;;;5103127;28;20067;-57
2023/08/18 03:28:31;;;;;;;9.23;3.78;;;16.70;99.90;;;;;;5066303;28;20044;-57
2023/08/18 03:31:01;;;;;;;8.95;4.10;;;16.70;99.90;;;;;;5081335;28;20045;-57
2023/08/18 03:33:27;;;;;;;9.02;4.10;;;16.70;99.90;;;;;;5068639;28;20052;-57
2023/08/18 03:35:54;;;;;;;8.15;3.75;;;16.70;99.90;;;;;;5069770;28;20040;-56
2023/08/18 03:38:20;;;;;;;8.30;3.90;;;16.70;99.90;;;;;;5088982;28;20107;-58
2023/08/18 03:40:46;;;;;;;10.90;4.75;;;16.70;99.90;;;;;;5074740;28;20490;-57
2023/08/18 03:43:12;;;;;;;6.15;4.05;;;16.70;99.90;;;;;;5068383;28;20102;-58
2023/08/18 03:45:37;;;;;;;12.27;4.45;;;16.70;99.90;;;;;;5081758;28;20037;-57
2023/08/18 03:48:04;;;;;;;8.27;3.90;;;16.70;99.90;;;;;;5081791;28;20052;-57
2023/08/18 03:50:29;;;;;;;9.10;4.78;;;16.70;99.90;;;;;;5074707;28;20024;-56
2023/08/18 03:52:55;;;;;;;10.88;4.70;;;16.70;99.90;;;;;;5081417;28;20120;-57
2023/08/18 03:55:21;;;;;;;13.57;4.10;;;16.70;99.90;;;;;;5082532;28;20063;-57
2023/08/18 03:57:46;;;;;;;8.57;4.40;;;16.70;99.90;;;;;;5079681;28;20091;-57
2023/08/18 04:00:13;;;;;;;10.50;4.43;;;16.60;99.90;;;;;;5081169;28;20072;-57
2023/08/18 04:02:38;;;;;;;9.63;4.32;;;16.70;99.90;;;;;;5082079;28;20433;-57
2023/08/18 04:05:04;;;;;;;10.18;4.50;;;16.60;99.90;;;;;;5080294;28;20041;-57
2023/08/18 04:07:30;;;;;;;10.88;5.20;;;16.70;99.90;;;;;;5072788;28;20092;-57
2023/08/18 04:09:56;;;;;;;11.35;4.63;;;16.70;99.90;;;;;;5074897;28;20045;-57
2023/08/18 04:12:22;;;;;;;13.00;4.90;;;16.70;99.90;;;;;;5077810;28;20070;-57
2023/08/18 04:14:47;;;;;;;10.82;5.00;;;16.60;99.90;;;;;;5067348;28;20100;-57
2023/08/18 04:17:13;;;;;;;9.75;4.95;;;16.70;99.90;;;;;;5082366;28;20037;-57
2023/08/18 04:19:39;;;;;;;9.60;4.85;;;16.70;99.90;;;;;;5081337;28;20105;-57
2023/08/18 04:22:04;;;;;;;9.38;5.07;;;16.60;99.90;;;;;;5079347;28;20119;-57
2023/08/18 04:24:30;;;;;;;11.27;4.80;;;16.60;99.90;;;;;;5080580;28;20075;-57
2023/08/18 04:26:59;;;;;;;11.70;4.93;;;16.60;99.90;;;;;;5097892;28;20068;-57
2023/08/18 04:29:26;;;;;;;14.75;5.50;;;16.60;99.90;;;;;;5081110;28;20104;-57
2023/08/18 04:31:51;;;;;;;11.30;5.40;;;16.70;99.90;;;;;;5071231;28;20043;-57
2023/08/18 04:34:17;;;;;;;11.35;5.57;;;16.60;99.90;;;;;;5078620;28;20096;-57
2023/08/18 04:36:44;;;;;;;14.68;5.85;;;16.60;99.90;;;;;;5079091;28;20045;-57
2023/08/18 04:39:13;;;;;;;12.80;6.35;;;16.60;99.90;;;;;;5090681;28;20044;-57
2023/08/18 04:41:39;;;;;;;9.20;5.43;;;16.60;99.90;;;;;;5070106;28;20086;-57
2023/08/18 04:44:05;;;;;;;11.75;5.68;;;16.60;99.90;;;;;;5064802;28;20060;-57
2023/08/18 04:46:31;;;;;;;9.80;5.65;;;16.60;99.90;;;;;;5082075;28;20187;-57
2023/08/18 04:48:57;;;;;;;9.60;6.03;;;16.60;99.90;;;;;;5080511;28;20054;-57
2023/08/18 04:51:23;;;;;;;16.08;6.75;;;16.70;99.90;;;;;;5082112;28;20813;-57
2023/08/18 04:53:49;;;;;;;12.18;6.75;;;16.60;99.90;;;;;;5079224;28;20071;-56
2023/08/18 04:56:15;;;;;;;10.82;6.28;;;16.60;99.90;;;;;;5068161;28;20404;-57
2023/08/18 04:58:41;;;;;;;16.63;6.65;;;16.60;99.90;;;;;;5079618;28;20032;-57
2023/08/18 05:01:08;;;;;;;14.25;6.85;;;16.60;99.90;;;;;;5080291;28;20041;-57
2023/08/18 05:03:33;;;;;;;14.77;7.00;;;16.60;99.90;;;;;;5081173;28;20050;-57
2023/08/18 05:06:07;;;;;;;13.73;6.95;;;16.70;99.90;;;;;;5079919;28;20080;-57
2023/08/18 05:08:33;;;;;;;12.80;7.25;;;16.60;99.90;;;;;;5079090;28;20060;-57
2023/08/18 05:11:07;;;;;;;11.80;6.70;;;16.60;99.90;;;;;;5082537;28;20052;-56
2023/08/18 05:13:33;;;;;;;16.75;6.88;;;16.60;99.90;;;;;;5080764;28;20125;-56
2023/08/18 05:16:00;;;;;;;15.20;6.65;;;16.70;99.90;;;;;;5078406;28;20041;-57
2023/08/18 05:18:28;;;;;;;13.25;7.07;;;16.70;99.90;;;;;;5080348;28;20036;-57
2023/08/18 05:21:00;;;;;;;14.75;6.97;;;16.70;99.90;;;;;;5080414;28;20561;-57
2023/08/18 05:23:29;;;;;;;12.35;7.30;;;16.70;99.90;;;;;;5080240;28;20032;-56
2023/08/18 05:25:55;;;;;;;13.63;7.28;;;16.70;99.90;;;;;;5076435;28;20082;-57
2023/08/18 05:28:21;;;;;;;15.48;7.30;;;16.70;99.90;;;;;;5081770;28;20535;-57
2023/08/18 05:30:48;;;;;;;16.27;6.95;;;16.70;99.90;;;;;;5058773;28;20051;-57
2023/08/18 05:33:14;;;;;;;13.75;7.35;;;16.70;99.90;;;;;;5077163;28;20043;-57
2023/08/18 05:35:41;;;;;;;15.32;7.45;;;16.70;99.90;;;;;;5085309;28;20068;-57
2023/08/18 05:38:10;;;;;;;15.10;7.78;;;16.70;99.90;;;;;;5079259;28;20080;-57
2023/08/18 05:40:42;;;;;;;11.07;6.90;;;16.70;99.90;;;;;;5067311;28;20119;-57
2023/08/18 05:43:09;;;;;;;13.07;6.72;;;16.80;99.90;;;;;;5100263;28;20039;-57
2023/08/18 05:45:36;;;;;;;13.82;7.10;;;16.80;99.90;;;;;;5079211;28;20064;-57
2023/08/18 05:48:04;;;;;;;12.55;7.03;;;16.70;99.90;;;;;;5081887;28;20043;-58
2023/08/18 05:50:30;;;;;;;13.02;6.70;;;16.80;99.90;;;;;;5067529;28;20047;-57
2023/08/18 05:52:56;;;;;;;16.20;7.15;;;16.70;99.90;;;;;;5086569;28;20078;-58
2023/08/18 05:55:25;;;;;;;14.05;7.38;;;16.80;99.90;;;;;;5101142;28;20475;-57
2023/08/18 05:57:52;;;;;;;12.52;6.85;;;16.80;99.90;;;;;;5097997;28;20047;-59
2023/08/18 06:00:18;;;;;;;12.02;6.32;;;16.80;99.90;;;;;;5095353;28;20052;-58
2023/08/18 06:02:44;;;;;;;13.48;6.18;;;16.80;99.90;;;;;;5084308;28;20044;-57
2023/08/18 06:05:13;;;;;;;11.07;6.70;;;16.80;99.90;;;;;;5078154;28;20499;-58
2023/08/18 06:07:42;;;;;;;18.40;6.50;;;16.80;99.90;;;;;;5060828;28;20112;-57
2023/08/18 06:10:09;;;;;;;16.20;6.43;;;16.80;99.90;;;;;;5076204;28;20114;-57
2023/08/18 06:12:35;;;;;;;11.18;6.75;;;16.80;99.90;;;;;;5080222;28;20059;-59
2023/08/18 06:15:01;;;;;;;9.32;6.38;;;16.80;99.90;;;;;;5077932;28;20127;-57
2023/08/18 06:17:27;;;;;;;10.85;6.25;;;16.90;99.90;;;;;;5064787;28;21085;-57
2023/08/18 06:19:53;;;;;;;11.07;6.40;;;16.90;99.90;;;;;;5076518;28;20055;-57
2023/08/18 06:22:19;;;;;;;11.43;5.45;;;16.90;99.90;;;;;;5076837;28;20059;-57
2023/08/18 06:24:45;;;;;;;15.20;6.45;;;16.90;99.90;;;;;;5080858;28;20048;-57
2023/08/18 06:27:11;;;;;;;11.45;6.60;;;16.90;99.90;;;;;;5077216;28;20386;-57
2023/08/18 06:29:38;;;;;;;13.27;6.47;;;16.90;99.90;;;;;;5062235;28;20521;-57
2023/08/18 06:32:04;;;;;;;16.70;6.93;;;17.00;99.90;;;;;;5103954;28;20057;-57
2023/08/18 06:34:30;;;;;;;11.85;6.80;;;17.00;99.90;;;;;;5079829;28;20519;-57
2023/08/18 06:36:56;;;;;;;14.60;7.35;;;17.00;99.90;;;;;;5079008;28;20094;-58
2023/08/18 06:39:21;;;;;;;12.35;7.07;;;17.00;99.90;;;;;;5074638;28;20054;-58
2023/08/18 06:41:47;;;;;;;12.93;6.70;;;17.10;99.90;;;;;;5073010;28;20527;-58
2023/08/18 06:44:13;;;;;;;12.10;7.22;;;17.10;99.90;;;;;;5077123;28;20072;-58
2023/08/18 06:46:39;;;;;;;13.60;7.20;;;17.10;99.90;;;;;;5078237;28;20040;-57
2023/08/18 06:49:05;;;;;;;11.43;7.32;;;17.20;99.90;;;;;;5073736;28;20444;-57
2023/08/18 06:51:30;;;;;;;11.13;6.90;;;17.20;99.90;;;;;;5068544;28;20110;-57
2023/08/18 06:53:56;;;;;;;13.00;7.30;;;17.20;99.90;;;;;;5085729;28;20041;-57
2023/08/18 06:56:22;;;;;;;14.38;6.97;;;17.30;99.90;;;;;;5093072;28;20052;-58
2023/08/18 06:58:48;;;;;;;11.20;7.43;;;17.30;99.90;;;;;;5083102;28;20066;-57
2023/08/18 07:01:13;;;;;;;13.85;7.30;;;17.40;99.90;;;;;;5077995;28;20076;-57
2023/08/18 07:03:39;;;;;;;14.18;7.65;;;17.40;99.90;;;;;;5093036;28;20099;-57
2023/08/18 07:06:05;;;;;;;14.98;6.95;;;17.50;99.90;;;;;;5098034;28;20036;-56
2023/08/18 07:08:32;;;;;;;14.77;7.50;;;17.50;99.90;;;;;;5076547;28;20045;-57
2023/08/18 07:10:58;;;;;;;13.48;7.10;;;17.50;99.90;;;;;;5070987;28;20501;-56
2023/08/18 07:13:24;;;;;;;13.15;7.57;;;17.60;99.90;;;;;;5082268;28;20051;-57
2023/08/18 07:15:49;;;;;;;10.55;6.47;;;17.60;99.90;;;;;;5080297;28;20096;-57
2023/08/18 07:18:17;;;;;;;11.57;6.72;;;17.60;99.90;;;;;;5074722;28;20068;-58
2023/08/18 07:20:43;;;;;;;11.98;6.78;;;17.70;99.90;;;;;;5073614;28;20511;-58
2023/08/18 07:23:09;;;;;;;10.75;6.68;;;17.70;99.90;;;;;;5062095;28;20041;-58
2023/08/18 07:25:37;;;;;;;13.52;6.57;;;17.70;99.90;;;;;;5083315;28;20041;-58
2023/08/18 07:28:04;;;;;;;11.57;7.07;;;17.70;99.90;;;;;;5081597;28;20044;-57
2023/08/18 07:30:29;;;;;;;10.80;6.75;;;17.80;99.90;;;;;;5080641;28;20032;-57
2023/08/18 07:32:56;;;;;;;15.77;7.70;;;17.80;99.90;;;;;;5090762;28;20078;-57
2023/08/18 07:35:22;;;;;;;12.60;7.25;;;17.90;99.90;;;;;;5084761;28;20115;-57
2023/08/18 07:37:48;;;;;;;10.13;7.05;;;17.90;99.90;;;;;;5081260;28;20048;-57
2023/08/18 07:40:13;;;;;;;11.73;7.93;;;17.90;99.90;;;;;;5075687;28;20048;-57
2023/08/18 07:42:39;;;;;;;10.23;6.72;;;18.00;99.90;;;;;;5071371;28;20064;-58
2023/08/18 07:45:06;;;;;;;8.27;6.72;;;18.00;99.90;;;;;;5062189;28;20394;-57
2023/08/18 07:47:33;;;;;;;11.02;7.20;;;18.00;99.90;;;;;;5077189;28;20484;-57
2023/08/18 07:49:58;;;;;;;10.60;6.93;;;18.10;99.90;;;;;;5069776;28;20485;-59
2023/08/18 07:52:24;;;;;;;11.27;7.13;;;18.10;99.90;;;;;;5077523;28;20032;-58
2023/08/18 07:54:50;;;;;;;10.88;7.18;;;18.20;99.90;;;;;;5086787;28;20040;-57
2023/08/18 07:57:16;;;;;;;14.85;7.40;;;18.30;99.90;;;;;;5085506;28;20045;-57
2023/08/18 07:59:42;;;;;;;11.93;7.53;;;18.30;99.90;;;;;;5081854;28;20045;-57
2023/08/18 08:02:08;;;;;;;14.13;7.35;;;18.30;99.90;;;;;;5075732;28;20100;-57
2023/08/18 08:04:33;;;;;;;13.48;8.25;;;18.40;99.90;;;;;;5084506;28;20044;-57
2023/08/18 08:06:59;;;;;;;14.45;8.57;;;18.40;99.90;;;;;;5060888;28;20102;-57
2023/08/18 08:09:25;;;;;;;14.57;7.82;;;18.40;99.90;;;;;;5062513;28;20033;-57
2023/08/18 08:11:52;;;;;;;13.68;7.85;;;18.50;99.90;;;;;;5081282;28;20476;-58
2023/08/18 08:14:19;;;;;;;13.60;8.57;;;18.50;99.90;;;;;;5079546;28;20044;-57
2023/08/18 08:16:45;;;;;;;14.00;7.97;;;18.60;99.90;;;;;;5080572;28;20440;-57
2023/08/18 08:19:12;;;;;;;14.10;7.38;;;18.70;99.90;;;;;;5080425;28;20048;-57
2023/08/18 08:21:38;;;;;;;14.23;8.68;;;18.70;99.90;;;;;;5088695;28;20044;-57
2023/08/18 08:24:05;;;;;;;12.13;8.13;;;18.70;99.90;;;;;;5083229;28;20061;-57
2023/08/18 08:26:30;;;;;;;15.55;8.48;;;18.80;99.90;;;;;;5059803;28;20082;-57
2023/08/18 08:28:56;;;;;;;17.00;8.13;;;18.90;99.90;;;;;;5094839;28;20036;-57
2023/08/18 08:31:22;;;;;;;11.85;7.80;;;18.90;99.90;;;;;;5100840;28;20048;-57
2023/08/18 08:33:47;;;;;;;12.25;7.82;;;18.90;99.90;;;;;;5093564;28;20032;-57
2023/08/18 08:36:13;;;;;;;14.85;7.85;;;19.00;99.90;;;;;;5081007;28;20047;-56
2023/08/18 08:38:39;;;;;;;13.60;7.70;;;19.00;99.90;;;;;;5082256;28;20220;-57
2023/08/18 08:41:05;;;;;;;15.10;7.40;;;19.00;99.90;;;;;;5081181;28;20528;-57
2023/08/18 08:43:30;;;;;;;13.82;8.55;;;19.10;99.90;;;;;;5077170;28;20041;-57
2023/08/18 08:46:00;;;;;;;17.67;8.40;;;19.10;99.90;;;;;;5061754;28;20071;-57
2023/08/18 08:48:31;;;;;;;13.27;7.07;;;19.10;99.90;;;;;;5071853;28;20037;-57
2023/08/18 08:51:01;;;;;;;11.90;7.60;;;19.10;99.90;;;;;;5102681;28;20036;-57
2023/08/18 08:53:35;;;;;;;11.55;7.50;;;19.20;99.90;;;;;;5097689;28;20071;-57
2023/08/18 08:56:02;;;;;;;12.50;7.72;;;19.20;99.90;;;;;;5061330;28;20037;-57
2023/08/18 08:58:31;;;;;;;12.18;6.80;;;19.30;99.90;;;;;;5076552;28;20047;-57
2023/08/18 09:01:01;;;;;;;11.75;6.40;;;19.30;99.90;;;;;;5081257;28;20120;-57
2023/08/18 09:03:28;;;;;;;8.27;6.47;;;19.40;99.90;;;;;;5081051;28;20388;-57
2023/08/18 09:05:54;;;;;;;10.52;7.38;;;19.50;99.90;;;;;;5084532;28;20043;-56
2023/08/18 09:08:20;;;;;;;11.43;6.88;;;19.50;99.90;;;;;;5090047;28;20105;-57
2023/08/18 09:10:46;;;;;;;12.35;7.47;;;19.50;99.90;;;;;;5083477;28;20492;-57
2023/08/18 09:13:12;;;;;;;10.93;6.75;;;19.60;99.90;;;;;;5100654;28;20055;-57
2023/08/18 09:15:41;;;;;;;10.10;6.65;;;19.60;99.90;;;;;;5083228;28;20085;-57
2023/08/18 09:18:07;;;;;;;12.18;6.90;;;19.80;99.90;;;;;;5095861;28;20075;-58
2023/08/18 09:20:34;;;;;;;10.70;6.53;;;19.90;99.90;;;;;;5081617;28;20043;-57
2023/08/18 09:23:00;;;;;;;10.13;6.68;;;20.00;99.90;;;;;;5078117;28;20052;-58
2023/08/18 09:25:25;;;;;;;10.43;6.88;;;20.10;99.90;;;;;;5090978;28;20097;-58
2023/08/18 09:27:51;;;;;;;16.27;7.57;;;20.20;99.90;;;;;;5082406;28;20045;-58
2023/08/18 09:30:17;;;;;;;9.40;6.63;;;20.20;99.90;;;;;;5083159;28;20040;-57
2023/08/18 09:32:43;;;;;;;12.18;6.53;;;20.30;99.90;;;;;;5101225;28;20040;-58
2023/08/18 09:35:12;;;;;;;16.15;7.78;;;20.30;99.90;;;;;;5083297;28;20039;-58
2023/08/18 09:37:38;;;;;;;11.02;7.03;;;20.40;99.90;;;;;;5090821;28;20036;-58
2023/08/18 09:40:04;;;;;;;12.18;7.65;;;20.40;99.90;;;;;;5086401;28;20131;-58
2023/08/18 09:42:30;;;;;;;11.35;7.35;;;20.50;99.90;;;;;;5080683;28;20045;-57
2023/08/18 09:44:56;;;;;;;13.10;7.60;;;20.50;99.90;;;;;;5066420;28;20047;-57
2023/08/18 09:47:28;;;;;;;11.38;7.07;;;20.60;99.90;;;;;;5060335;28;20037;-57
2023/08/18 09:49:55;;;;;;;12.60;7.82;;;20.60;99.90;;;;;;5061081;28;20080;-57
2023/08/18 09:52:24;;;;;;;11.35;6.78;;;20.60;99.90;;;;;;5059485;28;20049;-57
2023/08/18 09:54:59;;;;;;;12.73;7.75;;;20.60;99.90;;;;;;5072030;28;20033;-58
2023/08/18 09:58:02;;;;;;;11.73;7.68;;;20.60;99.90;;;;;;5074531;28;20079;-58
2023/08/18 10:00:30;;;;;;;14.35;8.13;;;20.60;99.90;;;;;;5074571;28;20080;-57
2023/08/18 10:02:59;;;;;;;13.52;8.80;;;20.60;99.90;;;;;;5080604;28;20059;-57
2023/08/18 10:05:27;;;;;;;13.30;8.65;;;20.70;99.90;;;;;;5063900;28;20052;-57
2023/08/18 10:07:53;;;;;;;14.50;9.15;;;20.70;99.90;;;;;;5080189;28;20067;-57
2023/08/18 10:10:21;;;;;;;14.40;9.25;;;20.70;99.90;;;;;;5082379;28;20048;-59
2023/08/18 10:12:47;;;;;;;13.85;9.50;;;20.70;99.90;;;;;;5076665;28;20660;-60
2023/08/18 10:15:13;;;;;;;17.08;10.18;;;20.60;99.90;;;;;;5092348;28;20032;-59
2023/08/18 10:17:40;;;;;;;13.50;9.63;;;20.60;99.90;;;;;;5072474;28;20044;-60
2023/08/18 10:20:10;;;;;;;14.80;10.57;;;20.60;99.90;;;;;;5100979;28;20040;-59
2023/08/18 10:22:36;;;;;;;16.92;11.10;;;20.60;99.90;;;;;;5073514;28;20087;-60
2023/08/18 10:25:04;;;;;;;17.33;11.10;;;20.70;99.90;;;;;;5073466;28;20041;-59
2023/08/18 10:27:29;;;;;;;14.65;9.77;;;20.70;99.90;;;;;;5059685;28;20048;-59
2023/08/18 10:29:58;;;;;;;16.77;11.75;;;20.90;99.90;;;;;;5059060;28;20129;-57
2023/08/18 10:32:24;;;;;;;16.90;11.65;;;20.90;99.90;;;;;;5061627;28;20044;-56
2023/08/18 10:34:50;;;;;;;16.67;12.77;;;21.00;99.90;;;;;;5059206;28;20045;-57
2023/08/18 10:37:20;;;;;;;19.50;12.88;;;21.00;99.90;;;;;;5072493;28;20064;-57
2023/08/18 10:39:48;;;;;;;18.35;12.43;;;21.10;99.90;;;;;;5076455;28;20040;-56
2023/08/18 10:42:15;;;;;;;20.67;12.50;;;21.20;99.90;;;;;;5080168;28;20118;-57
2023/08/18 10:45:21;;;;;;;20.77;12.32;;;21.20;99.90;;;;;;5078076;28;20078;-56
2023/08/18 10:47:47;;;;;;;16.25;11.63;;;21.40;99.90;;;;;;5077933;28;20067;-58
2023/08/18 10:50:14;;;;;;;17.55;13.10;;;21.40;99.90;;;;;;5085950;28;20040;-56
2023/08/18 10:52:41;;;;;;;17.92;13.38;;;21.50;99.90;;;;;;5098920;28;20370;-56
2023/08/18 10:55:07;;;;;;;16.70;12.23;;;21.60;99.90;;;;;;5082405;28;20396;-56
2023/08/18 10:57:37;;;;;;;20.55;14.35;;;21.60;99.90;;;;;;5062269;28;20036;-59
2023/08/18 11:00:10;;;;;;;22.17;14.88;;;21.70;99.90;;;;;;5071340;28;20041;-57
2023/08/18 11:02:37;;;;;;;20.42;14.70;;;21.70;99.90;;;;;;5077356;28;20041;-58
2023/08/18 11:05:04;;;;;;;22.65;16.20;;;21.70;99.90;;;;;;5078775;28;20044;-58
2023/08/18 11:07:30;;;;;;;20.58;14.43;;;21.70;99.90;;;;;;5081040;28;20096;-59
2023/08/18 11:09:56;;;;;;;20.52;14.88;;;21.70;99.90;;;;;;5089208;28;20051;-56
2023/08/18 11:12:22;;;;;;;19.75;15.63;;;21.70;99.90;;;;;;5078892;28;20032;-59
2023/08/18 11:14:48;;;;;;;19.77;14.88;;;21.80;99.90;;;;;;5079571;28;20040;-58
2023/08/18 11:17:14;;;;;;;23.38;16.23;;;21.90;99.90;;;;;;5075685;28;20044;-58
2023/08/18 11:19:40;;;;;;;21.42;14.55;;;22.00;99.90;;;;;;5067339;28;20049;-58
2023/08/18 11:22:06;;;;;;;21.88;15.60;;;21.90;99.90;;;;;;5077543;28;20488;-59
2023/08/18 11:24:34;;;;;;;22.63;15.68;;;21.90;99.90;;;;;;5080108;28;20037;-56
2023/08/18 11:27:01;;;;;;;21.83;15.23;;;22.00;99.90;;;;;;5078281;28;20075;-59
2023/08/18 11:29:30;;;;;;;22.40;15.68;;;22.10;99.90;;;;;;5079901;28;20489;-56
2023/08/18 11:31:55;;;;;;;18.95;13.70;;;22.20;99.90;;;;;;5078625;28;20102;-55
2023/08/18 11:34:21;;;;;;;20.92;15.07;;;22.30;99.90;;;;;;5078536;28;20061;-56
2023/08/18 11:36:47;;;;;;;20.25;15.48;;;22.40;99.90;;;;;;5080897;28;20100;-58
2023/08/18 11:39:13;;;;;;;21.60;15.95;;;22.40;99.90;;;;;;5082119;28;20040;-59
2023/08/18 11:41:43;;;;;;;20.77;15.57;;;22.50;99.90;;;;;;5079400;28;20061;-59
2023/08/18 11:44:10;;;;;;;19.33;15.05;;;22.50;99.90;;;;;;5076873;28;20547;-59
2023/08/18 11:46:37;;;;;;;19.63;14.75;;;22.60;99.90;;;;;;5087528;28;20028;-59
2023/08/18 11:49:11;;;;;;;19.75;15.43;;;22.70;99.90;;;;;;5084435;28;20056;-58
2023/08/18 11:51:37;;;;;;;21.08;15.45;;;22.80;99.90;;;;;;5066273;28;20107;-59
2023/08/18 11:54:12;;;;;;;21.17;14.95;;;22.90;99.90;;;;;;5069927;28;20078;-58
2023/08/18 11:56:38;;;;;;;27.15;17.27;;;22.90;99.90;;;;;;5075453;28;20036;-58
2023/08/18 11:59:04;;;;;;;23.60;16.48;;;22.80;99.90;;;;;;5083004;28;20037;-59
2023/08/18 12:01:34;;;;;;;22.38;16.55;;;22.80;99.90;;;;;;5084431;28;20530;-59
2023/08/18 12:04:00;;;;;;;24.50;16.25;;;22.80;99.90;;;;;;5066699;28;20175;-59
2023/08/18 12:06:26;;;;;;;20.67;16.40;;;22.80;99.90;;;;;;5078552;28;20041;-59
2023/08/18 12:08:52;;;;;;;21.77;17.23;;;22.80;99.90;;;;;;5062039;28;20045;-58
2023/08/18 12:11:18;;;;;;;24.85;17.35;;;22.80;99.90;;;;;;5095473;28;20047;-58
2023/08/18 12:13:44;;;;;;;24.27;17.40;;;22.80;99.90;;;;;;5063309;28;20044;-59
2023/08/18 12:16:09;;;;;;;24.05;18.73;;;22.80;99.90;;;;;;5076224;28;20051;-59
2023/08/18 12:18:35;;;;;;;23.85;16.90;;;22.90;99.90;;;;;;5071007;28;20066;-58
2023/08/18 12:21:01;;;;;;;28.02;18.02;;;22.80;99.90;;;;;;5081404;28;20044;-58
2023/08/18 12:23:26;;;;;;;29.52;19.45;;;22.80;99.90;;;;;;5092525;28;20040;-58
2023/08/18 12:25:52;;;;;;;24.98;18.70;;;22.90;99.90;;;;;;5089844;28;20036;-59
2023/08/18 12:28:18;;;;;;;23.75;18.20;;;23.00;99.90;;;;;;5082081;28;20041;-58
2023/08/18 12:30:44;;;;;;;26.42;19.00;;;23.00;99.90;;;;;;5080001;28;20063;-59
2023/08/18 12:33:09;;;;;;;20.85;16.83;;;23.10;99.90;;;;;;5082633;28;20063;-58
2023/08/18 12:35:35;;;;;;;21.98;17.88;;;23.30;99.90;;;;;;5078710;28;20044;-59